createdAt,value
2017-02-28T00:00:45.784Z,24.13
2017-02-28T00:01:56.773Z,24.22
2017-02-28T00:03:07.538Z,24.13
2017-02-28T00:04:17.880Z,24.32
2017-02-28T00:05:27.851Z,24.32
2017-02-28T00:06:38.190Z,23.84
2017-02-28T00:07:48.785Z,24.22
2017-02-28T00:08:58.360Z,23.84
2017-02-28T00:10:09.115Z,23.93
2017-02-28T00:11:19.070Z,23.84
2017-02-28T00:12:29.432Z,23.84
2017-02-28T00:13:40.428Z,23.93
2017-02-28T00:14:51.185Z,23.93
2017-02-28T00:16:01.159Z,24.03
2017-02-28T00:17:11.912Z,23.84
2017-02-28T00:18:21.470Z,23.93
2017-02-28T00:19:32.063Z,23.93
2017-02-28T00:20:41.621Z,23.93
2017-02-28T00:21:51.971Z,23.93
2017-02-28T00:23:01.992Z,23.65
2017-02-28T00:24:12.744Z,23.74
2017-02-28T00:25:23.729Z,23.74
2017-02-28T00:26:34.089Z,23.74
2017-02-28T00:27:44.456Z,23.74
2017-02-28T00:28:55.199Z,23.74
2017-02-28T00:30:05.580Z,23.55
2017-02-28T00:31:16.177Z,23.74
2017-02-28T00:32:26.150Z,23.84
2017-02-28T00:33:36.095Z,23.74
2017-02-28T00:34:46.057Z,23.65
2017-02-28T00:35:56.424Z,23.84
2017-02-28T00:37:07.429Z,23.74
2017-02-28T00:38:18.174Z,23.84
2017-02-28T00:39:28.947Z,23.74
2017-02-28T00:40:38.917Z,24.13
2017-02-28T00:41:48.494Z,23.93
2017-02-28T00:42:59.099Z,23.65
2017-02-28T00:44:09.455Z,23.84
2017-02-28T00:45:20.223Z,23.74
2017-02-28T00:46:30.969Z,23.65
2017-02-28T00:47:41.317Z,23.84
2017-02-28T00:48:52.325Z,23.74
2017-02-28T00:50:02.665Z,23.84
2017-02-28T00:51:13.032Z,23.74
2017-02-28T00:52:23.407Z,23.93
2017-02-28T00:53:33.372Z,24.03
2017-02-28T00:54:44.386Z,23.84
2017-02-28T00:55:53.951Z,23.74
2017-02-28T00:57:04.697Z,23.74
2017-02-28T00:58:15.046Z,23.74
2017-02-28T00:59:25.801Z,23.84
2017-02-28T01:00:36.792Z,23.84
2017-02-28T01:01:47.560Z,23.65
2017-02-28T01:02:58.360Z,23.74
2017-02-28T01:04:08.704Z,23.84
2017-02-28T01:05:19.463Z,23.65
2017-02-28T01:06:30.082Z,23.84
2017-02-28T01:07:40.844Z,23.65
2017-02-28T01:08:51.199Z,23.84
2017-02-28T01:10:01.160Z,23.74
2017-02-28T01:11:11.539Z,23.65
2017-02-28T01:12:22.148Z,23.65
2017-02-28T01:13:32.496Z,23.65
2017-02-28T01:14:43.257Z,23.65
2017-02-28T01:15:53.228Z,23.55
2017-02-28T01:17:03.199Z,23.65
2017-02-28T01:18:13.814Z,23.65
2017-02-28T01:19:23.789Z,23.65
2017-02-28T01:20:34.185Z,23.55
2017-02-28T01:21:44.134Z,23.55
2017-02-28T01:22:54.505Z,23.65
2017-02-28T01:24:05.512Z,23.65
2017-02-28T01:25:15.467Z,23.65
2017-02-28T01:26:25.411Z,23.36
2017-02-28T01:27:35.357Z,23.16
2017-02-28T01:28:45.702Z,23.46
2017-02-28T01:29:56.303Z,23.46
2017-02-28T01:31:06.253Z,23.16
2017-02-28T01:32:16.592Z,23.36
2017-02-28T01:33:26.557Z,23.74
2017-02-28T01:34:36.937Z,23.55
2017-02-28T01:35:47.936Z,23.46
2017-02-28T01:36:58.303Z,23.26
2017-02-28T01:38:08.643Z,23.16
2017-02-28T01:39:19.400Z,23.26
2017-02-28T01:40:29.369Z,23.26
2017-02-28T01:41:39.981Z,23.26
2017-02-28T01:42:50.332Z,23.26
2017-02-28T01:44:00.672Z,23.26
2017-02-28T01:45:11.037Z,23.16
2017-02-28T01:46:21.811Z,23.26
2017-02-28T01:47:32.432Z,23.26
2017-02-28T01:48:43.170Z,23.26
2017-02-28T01:49:53.146Z,23.16
2017-02-28T01:51:03.897Z,23.26
2017-02-28T01:52:14.240Z,23.26
2017-02-28T01:53:25.257Z,23.26
2017-02-28T01:54:35.599Z,23.26
2017-02-28T01:55:45.965Z,23.26
2017-02-28T01:56:56.732Z,23.16
2017-02-28T01:58:07.101Z,23.26
2017-02-28T01:59:17.705Z,23.26
2017-02-28T02:00:28.451Z,23.26
2017-02-28T02:01:38.800Z,23.36
2017-02-28T02:02:49.142Z,23.36
2017-02-28T02:03:59.907Z,23.26
2017-02-28T02:05:10.533Z,23.26
2017-02-28T02:06:20.892Z,23.26
2017-02-28T02:07:31.250Z,23.36
2017-02-28T02:08:41.228Z,23.36
2017-02-28T02:09:51.580Z,23.46
2017-02-28T02:11:02.565Z,23.55
2017-02-28T02:12:13.308Z,23.46
2017-02-28T02:13:23.668Z,23.46
2017-02-28T02:14:34.015Z,23.36
2017-02-28T02:15:43.981Z,23.46
2017-02-28T02:16:54.610Z,23.36
2017-02-28T02:18:04.953Z,23.46
2017-02-28T02:19:14.165Z,23.26
2017-02-28T02:20:24.111Z,23.46
2017-02-28T02:21:34.072Z,23.36
2017-02-28T02:22:44.715Z,23.46
2017-02-28T02:23:54.260Z,23.36
2017-02-28T02:25:05.000Z,23.46
2017-02-28T02:26:15.342Z,23.36
2017-02-28T02:27:25.320Z,23.36
2017-02-28T02:28:36.303Z,22.97
2017-02-28T02:29:47.060Z,22.97
2017-02-28T02:30:57.012Z,22.97
2017-02-28T02:32:07.767Z,22.97
2017-02-28T02:33:18.135Z,22.97
2017-02-28T02:34:28.737Z,23.36
2017-02-28T02:35:39.489Z,22.88
2017-02-28T02:36:49.837Z,22.97
2017-02-28T02:38:00.596Z,22.97
2017-02-28T02:39:10.555Z,22.97
2017-02-28T02:40:21.149Z,22.97
2017-02-28T02:41:31.495Z,23.07
2017-02-28T02:42:41.451Z,23.46
2017-02-28T02:43:52.186Z,23.07
2017-02-28T02:45:02.148Z,23.16
2017-02-28T02:46:13.140Z,23.26
2017-02-28T02:47:23.505Z,22.97
2017-02-28T02:48:33.844Z,22.88
2017-02-28T02:49:44.586Z,23.16
2017-02-28T02:50:53.778Z,22.97
2017-02-28T02:52:04.394Z,22.97
2017-02-28T02:53:14.336Z,22.97
2017-02-28T02:54:24.675Z,22.88
2017-02-28T02:55:35.031Z,22.97
2017-02-28T02:56:45.405Z,23.07
2017-02-28T02:57:55.685Z,22.97
2017-02-28T02:59:06.413Z,22.97
2017-02-28T03:00:17.163Z,22.97
2017-02-28T03:01:27.543Z,22.97
2017-02-28T03:02:37.901Z,22.97
2017-02-28T03:03:48.893Z,22.88
2017-02-28T03:04:59.642Z,22.97
2017-02-28T03:06:09.994Z,23.07
2017-02-28T03:07:19.145Z,23.16
2017-02-28T03:08:29.514Z,22.97
2017-02-28T03:09:39.715Z,22.88
2017-02-28T03:10:50.448Z,22.88
2017-02-28T03:12:01.207Z,23.36
2017-02-28T03:13:11.582Z,23.07
2017-02-28T03:14:22.321Z,23.26
2017-02-28T03:15:32.576Z,22.97
2017-02-28T03:16:42.931Z,23.46
2017-02-28T03:17:52.896Z,23.46
2017-02-28T03:19:03.251Z,23.26
2017-02-28T03:20:13.987Z,23.46
2017-02-28T03:21:25.011Z,23.46
2017-02-28T03:22:35.353Z,23.36
2017-02-28T03:23:46.104Z,23.26
2017-02-28T03:24:56.467Z,23.46
2017-02-28T03:26:07.218Z,23.26
2017-02-28T03:27:17.414Z,23.46
2017-02-28T03:28:27.385Z,23.46
2017-02-28T03:29:37.757Z,23.46
2017-02-28T03:30:48.112Z,23.26
2017-02-28T03:31:58.104Z,23.26
2017-02-28T03:33:09.196Z,23.26
2017-02-28T03:34:19.935Z,23.26
2017-02-28T03:35:30.675Z,23.36
2017-02-28T03:36:40.637Z,23.26
2017-02-28T03:37:51.359Z,23.26
2017-02-28T03:39:02.358Z,23.26
2017-02-28T03:40:12.707Z,23.26
2017-02-28T03:41:22.672Z,23.16
2017-02-28T03:42:33.023Z,23.26
2017-02-28T03:43:43.813Z,23.36
2017-02-28T03:44:54.556Z,23.26
2017-02-28T03:46:05.295Z,23.16
2017-02-28T03:47:14.849Z,23.16
2017-02-28T03:48:25.216Z,23.26
2017-02-28T03:49:35.156Z,23.26
2017-02-28T03:50:45.759Z,23.26
2017-02-28T03:51:55.711Z,23.26
2017-02-28T03:53:05.672Z,23.16
2017-02-28T03:54:15.269Z,23.26
2017-02-28T03:55:25.223Z,23.16
2017-02-28T03:56:35.429Z,23.16
2017-02-28T03:57:44.978Z,23.07
2017-02-28T03:58:55.332Z,23.16
2017-02-28T04:00:05.671Z,23.26
2017-02-28T04:01:16.434Z,23.16
2017-02-28T04:02:27.032Z,23.16
2017-02-28T04:03:37.772Z,23.26
2017-02-28T04:04:47.745Z,23.46
2017-02-28T04:05:58.092Z,23.46
2017-02-28T04:07:08.859Z,23.65
2017-02-28T04:08:18.734Z,23.55
2017-02-28T04:09:29.477Z,23.55
2017-02-28T04:10:39.413Z,23.55
2017-02-28T04:11:49.784Z,23.55
2017-02-28T04:13:00.523Z,23.46
2017-02-28T04:14:11.184Z,23.36
2017-02-28T04:15:21.932Z,23.36
2017-02-28T04:16:32.290Z,23.46
2017-02-28T04:17:42.642Z,23.46
2017-02-28T04:18:52.978Z,23.16
2017-02-28T04:20:03.612Z,23.65
2017-02-28T04:21:13.573Z,23.65
2017-02-28T04:22:23.957Z,23.65
2017-02-28T04:23:34.723Z,23.65
2017-02-28T04:24:44.703Z,23.46
2017-02-28T04:25:55.715Z,23.65
2017-02-28T04:27:06.083Z,23.55
2017-02-28T04:28:16.067Z,23.65
2017-02-28T04:29:26.812Z,23.55
2017-02-28T04:30:37.537Z,23.65
2017-02-28T04:31:48.546Z,23.46
2017-02-28T04:32:58.506Z,23.55
2017-02-28T04:34:08.848Z,23.55
2017-02-28T04:35:18.819Z,23.55
2017-02-28T04:36:29.545Z,23.74
2017-02-28T04:37:40.537Z,23.55
2017-02-28T04:38:50.883Z,23.84
2017-02-28T04:40:01.620Z,23.84
2017-02-28T04:41:11.565Z,23.65
2017-02-28T04:42:21.529Z,23.93
2017-02-28T04:43:32.579Z,23.84
2017-02-28T04:44:43.311Z,23.65
2017-02-28T04:45:53.642Z,24.13
2017-02-28T04:47:04.391Z,23.74
2017-02-28T04:48:15.159Z,23.84
2017-02-28T04:49:25.815Z,23.84
2017-02-28T04:50:36.581Z,23.84
2017-02-28T04:51:47.335Z,23.74
2017-02-28T04:52:58.078Z,23.65
2017-02-28T04:54:08.902Z,23.84
2017-02-28T04:55:19.577Z,23.84
2017-02-28T04:56:29.534Z,23.65
2017-02-28T04:57:39.896Z,23.74
2017-02-28T04:58:50.629Z,23.74
2017-02-28T05:00:01.402Z,23.74
2017-02-28T05:01:12.389Z,23.74
2017-02-28T05:02:21.956Z,23.84
2017-02-28T05:03:32.725Z,23.74
2017-02-28T05:04:43.473Z,23.74
2017-02-28T05:05:54.231Z,23.93
2017-02-28T05:07:03.639Z,23.84
2017-02-28T05:08:13.998Z,23.84
2017-02-28T05:09:24.750Z,23.74
2017-02-28T05:10:35.512Z,23.93
2017-02-28T05:11:45.861Z,23.74
2017-02-28T05:12:56.527Z,23.93
2017-02-28T05:14:06.493Z,23.93
2017-02-28T05:15:17.232Z,23.84
2017-02-28T05:16:27.604Z,23.84
2017-02-28T05:17:38.349Z,23.84
2017-02-28T05:18:48.965Z,23.74
2017-02-28T05:19:59.735Z,23.93
2017-02-28T05:21:09.717Z,23.93
2017-02-28T05:22:19.688Z,24.22
2017-02-28T05:23:30.440Z,24.22
2017-02-28T05:24:41.442Z,24.32
2017-02-28T05:25:51.396Z,24.03
2017-02-28T05:27:01.360Z,24.13
2017-02-28T05:28:11.724Z,24.32
2017-02-28T05:29:22.483Z,24.03
2017-02-28T05:30:33.078Z,24.03
2017-02-28T05:31:43.439Z,23.93
2017-02-28T05:32:53.413Z,24.32
2017-02-28T05:34:04.156Z,24.03
2017-02-28T05:35:14.501Z,24.03
2017-02-28T05:36:24.725Z,24.03
2017-02-28T05:37:35.078Z,24.03
2017-02-28T05:38:45.414Z,24.13
2017-02-28T05:39:56.186Z,24.03
2017-02-28T05:41:06.958Z,23.93
2017-02-28T05:42:17.564Z,23.93
2017-02-28T05:43:28.339Z,23.93
2017-02-28T05:44:38.671Z,24.03
2017-02-28T05:45:48.240Z,23.93
2017-02-28T05:46:58.995Z,23.93
2017-02-28T05:48:09.652Z,24.03
2017-02-28T05:49:20.429Z,23.93
2017-02-28T05:50:31.190Z,23.93
2017-02-28T05:51:41.562Z,23.84
2017-02-28T05:52:51.919Z,24.03
2017-02-28T05:54:02.547Z,24.03
2017-02-28T05:55:13.286Z,24.13
2017-02-28T05:56:23.644Z,24.13
2017-02-28T05:57:34.035Z,24.03
2017-02-28T05:58:44.400Z,24.32
2017-02-28T05:59:54.620Z,23.93
2017-02-28T06:01:04.589Z,24.03
2017-02-28T06:02:15.328Z,23.93
2017-02-28T06:03:25.680Z,24.32
2017-02-28T06:04:35.635Z,24.32
2017-02-28T06:05:46.630Z,23.93
2017-02-28T06:06:57.383Z,23.93
2017-02-28T06:08:06.969Z,23.84
2017-02-28T06:09:17.718Z,23.84
2017-02-28T06:10:28.470Z,23.93
2017-02-28T06:11:39.072Z,23.93
2017-02-28T06:12:48.640Z,23.84
2017-02-28T06:13:59.370Z,23.93
2017-02-28T06:15:09.731Z,23.74
2017-02-28T06:16:20.099Z,23.84
2017-02-28T06:17:30.368Z,23.74
2017-02-28T06:18:40.724Z,23.84
2017-02-28T06:19:51.507Z,23.84
2017-02-28T06:21:02.279Z,23.93
2017-02-28T06:22:12.643Z,23.93
2017-02-28T06:23:23.647Z,23.74
2017-02-28T06:24:33.602Z,23.74
2017-02-28T06:25:44.342Z,23.84
2017-02-28T06:26:54.672Z,23.84
2017-02-28T06:28:04.622Z,24.13
2017-02-28T06:29:14.610Z,23.84
2017-02-28T06:30:25.350Z,23.84
2017-02-28T06:31:34.541Z,23.65
2017-02-28T06:32:45.282Z,23.65
2017-02-28T06:33:56.055Z,23.65
2017-02-28T06:35:06.691Z,23.65
2017-02-28T06:36:17.037Z,23.46
2017-02-28T06:37:27.791Z,23.16
2017-02-28T06:38:38.157Z,23.07
2017-02-28T06:39:48.823Z,23.26
2017-02-28T06:40:58.812Z,23.26
2017-02-28T06:42:08.000Z,23.36
2017-02-28T06:43:18.745Z,23.36
2017-02-28T06:44:28.701Z,23.36
2017-02-28T06:45:39.712Z,23.26
2017-02-28T06:46:50.090Z,23.36
2017-02-28T06:48:00.430Z,22.97
2017-02-28T06:49:10.390Z,23.07
2017-02-28T06:50:19.966Z,23.16
2017-02-28T06:51:30.295Z,22.97
2017-02-28T06:52:40.300Z,23.07
2017-02-28T06:53:51.059Z,23.07
2017-02-28T06:55:01.017Z,23.07
2017-02-28T06:56:11.841Z,23.07
2017-02-28T06:57:22.922Z,23.16
2017-02-28T06:58:33.341Z,23.16
2017-02-28T06:59:44.423Z,23.07
2017-02-28T07:00:55.470Z,23.07
2017-02-28T07:02:06.214Z,23.07
2017-02-28T07:03:16.841Z,23.07
2017-02-28T07:04:26.390Z,23.16
2017-02-28T07:05:37.132Z,23.07
2017-02-28T07:06:46.701Z,22.97
2017-02-28T07:07:57.066Z,22.97
2017-02-28T07:09:07.719Z,23.36
2017-02-28T07:10:17.706Z,23.65
2017-02-28T07:11:28.493Z,23.84
2017-02-28T07:12:38.893Z,24.32
2017-02-28T07:13:48.461Z,24.22
2017-02-28T07:14:58.703Z,24.61
2017-02-28T07:16:09.114Z,24.8
2017-02-28T07:17:19.519Z,24.8
2017-02-28T07:18:30.323Z,25.18
2017-02-28T07:19:39.929Z,25.18
2017-02-28T07:20:50.952Z,24.9
2017-02-28T07:22:01.309Z,24.99
2017-02-28T07:23:11.692Z,24.7
2017-02-28T07:24:22.447Z,24.9
2017-02-28T07:25:32.824Z,24.8
2017-02-28T07:26:43.046Z,24.51
2017-02-28T07:27:53.814Z,24.61
2017-02-28T07:29:04.631Z,24.51
2017-02-28T07:30:15.411Z,24.41
2017-02-28T07:31:26.386Z,24.51
2017-02-28T07:32:37.416Z,24.13
2017-02-28T07:33:47.818Z,24.41
2017-02-28T07:34:58.639Z,24.32
2017-02-28T07:36:09.398Z,24.22
2017-02-28T07:37:20.166Z,23.93
2017-02-28T07:38:30.790Z,23.84
2017-02-28T07:39:40.808Z,23.93
2017-02-28T07:40:51.567Z,23.93
2017-02-28T07:42:01.926Z,23.84
2017-02-28T07:43:12.325Z,24.32
2017-02-28T07:44:22.620Z,24.51
2017-02-28T07:45:33.416Z,24.9
2017-02-28T07:46:44.229Z,24.8
2017-02-28T07:47:54.748Z,24.9
2017-02-28T07:49:04.799Z,25.2
2017-02-28T07:50:15.049Z,25.38
2017-02-28T07:51:25.458Z,25.18
2017-02-28T07:52:36.235Z,25.2
2017-02-28T07:53:47.045Z,25.67
2017-02-28T07:54:57.457Z,25.58
2017-02-28T07:56:08.117Z,25.68
2017-02-28T07:57:18.159Z,25.57
2017-02-28T07:58:28.939Z,25.68
2017-02-28T07:59:39.761Z,25.68
2017-02-28T08:00:49.342Z,25.58
2017-02-28T08:01:59.960Z,25.87
2017-02-28T08:03:10.728Z,25.78
2017-02-28T08:04:21.131Z,25.95
2017-02-28T08:05:31.904Z,25.96
2017-02-28T08:06:41.903Z,25.96
2017-02-28T08:07:52.583Z,25.96
2017-02-28T08:09:03.419Z,25.95
2017-02-28T08:10:13.819Z,25.96
2017-02-28T08:11:24.592Z,25.96
2017-02-28T08:12:35.438Z,25.68
2017-02-28T08:13:46.077Z,25.78
2017-02-28T08:14:56.458Z,26.16
2017-02-28T08:16:07.246Z,26.34
2017-02-28T08:17:17.633Z,26.16
2017-02-28T08:18:28.413Z,26.35
2017-02-28T08:19:38.224Z,26.25
2017-02-28T08:20:48.218Z,26.54
2017-02-28T08:21:58.166Z,26.64
2017-02-28T08:23:08.927Z,26.45
2017-02-28T08:24:19.295Z,26.64
2017-02-28T08:25:30.317Z,26.35
2017-02-28T08:26:41.081Z,26.16
2017-02-28T08:27:51.836Z,26.06
2017-02-28T08:29:01.824Z,26.06
2017-02-28T08:30:11.786Z,26.06
2017-02-28T08:31:22.796Z,25.96
2017-02-28T08:32:33.613Z,25.68
2017-02-28T08:33:43.980Z,26.06
2017-02-28T08:34:54.371Z,25.68
2017-02-28T08:36:05.137Z,25.39
2017-02-28T08:37:15.843Z,25.1
2017-02-28T08:38:25.909Z,25.2
2017-02-28T08:39:36.677Z,25.2
2017-02-28T08:40:47.072Z,24.81
2017-02-28T08:41:57.036Z,24.91
2017-02-28T08:43:08.111Z,24.91
2017-02-28T08:44:18.517Z,25.2
2017-02-28T08:45:29.340Z,24.81
2017-02-28T08:46:39.721Z,24.81
2017-02-28T08:47:50.130Z,24.81
2017-02-28T08:49:01.175Z,24.81
2017-02-28T08:50:11.952Z,24.71
2017-02-28T08:51:22.346Z,24.71
2017-02-28T08:52:32.700Z,24.71
2017-02-28T08:53:43.497Z,24.43
2017-02-28T08:54:54.175Z,24.71
2017-02-28T08:56:04.575Z,24.52
2017-02-28T08:57:14.963Z,24.52
2017-02-28T08:58:25.340Z,24.33
2017-02-28T08:59:36.154Z,23.66
2017-02-28T09:00:46.829Z,22.99
2017-02-28T09:01:57.232Z,22.69
2017-02-28T09:03:07.608Z,22.12
2017-02-28T09:04:18.376Z,21.54
2017-02-28T09:05:29.035Z,21.25
2017-02-28T09:06:40.063Z,21.06
2017-02-28T09:07:50.822Z,20.97
2017-02-28T09:09:01.190Z,20.87
2017-02-28T09:10:11.583Z,21.15
2017-02-28T09:11:22.149Z,21.15
2017-02-28T09:12:32.434Z,21.35
2017-02-28T09:13:43.235Z,21.17
2017-02-28T09:14:53.590Z,21.36
2017-02-28T09:16:04.369Z,21.55
2017-02-28T09:17:15.134Z,21.44
2017-02-28T09:18:26.143Z,21.55
2017-02-28T09:19:36.923Z,21.75
2017-02-28T09:20:47.301Z,21.64
2017-02-28T09:21:58.073Z,21.83
2017-02-28T09:23:08.045Z,21.83
2017-02-28T09:24:19.108Z,21.65
2017-02-28T09:25:29.475Z,21.75
2017-02-28T09:26:39.880Z,21.75
2017-02-28T09:27:50.216Z,21.75
2017-02-28T09:29:01.003Z,21.75
2017-02-28T09:30:10.861Z,21.26
2017-02-28T09:31:21.222Z,20.97
2017-02-28T09:32:31.176Z,20.4
2017-02-28T09:33:41.532Z,20.01
2017-02-28T09:34:51.898Z,19.82
2017-02-28T09:36:02.565Z,20.2
2017-02-28T09:37:12.986Z,20.2
2017-02-28T09:38:22.969Z,20.4
2017-02-28T09:39:32.942Z,20.4
2017-02-28T09:40:43.340Z,20.5
2017-02-28T09:41:54.338Z,20.59
2017-02-28T09:43:04.300Z,20.3
2017-02-28T09:44:14.298Z,20.2
2017-02-28T09:45:24.255Z,20.68
2017-02-28T09:46:34.216Z,20.5
2017-02-28T09:47:45.287Z,20.7
2017-02-28T09:48:55.638Z,20.68
2017-02-28T09:50:06.018Z,20.3
2017-02-28T09:51:16.809Z,20.31
2017-02-28T09:52:27.188Z,20.3
2017-02-28T09:53:38.200Z,20.4
2017-02-28T09:54:48.588Z,20.11
2017-02-28T09:55:58.559Z,19.72
2017-02-28T09:57:08.524Z,20.01
2017-02-28T09:58:18.890Z,19.63
2017-02-28T09:59:33.392Z,19.72
2017-02-28T10:00:44.173Z,19.82
2017-02-28T10:01:54.538Z,20.01
2017-02-28T10:03:04.906Z,19.92
2017-02-28T10:04:15.264Z,19.63
2017-02-28T10:05:25.957Z,19.92
2017-02-28T10:06:35.551Z,19.63
2017-02-28T10:07:45.915Z,19.9
2017-02-28T10:08:56.329Z,19.71
2017-02-28T10:10:06.713Z,20.1
2017-02-28T10:11:17.792Z,19.61
2017-02-28T10:12:28.151Z,19.13
2017-02-28T10:13:38.915Z,19.52
2017-02-28T10:14:49.675Z,19.72
2017-02-28T10:16:00.054Z,19.63
2017-02-28T10:17:11.043Z,19.34
2017-02-28T10:18:20.622Z,19.92
2017-02-28T10:19:31.408Z,19.34
2017-02-28T10:20:41.370Z,19.24
2017-02-28T10:21:51.742Z,19.34
2017-02-28T10:23:02.781Z,19.43
2017-02-28T10:24:13.546Z,19.53
2017-02-28T10:25:23.917Z,19.53
2017-02-28T10:26:34.662Z,19.43
2017-02-28T10:27:44.623Z,19.63
2017-02-28T10:28:55.287Z,19.43
2017-02-28T10:30:05.270Z,19.63
2017-02-28T10:31:16.070Z,19.63
2017-02-28T10:32:26.867Z,19.72
2017-02-28T10:33:37.616Z,19.72
2017-02-28T10:34:48.369Z,19.63
2017-02-28T10:35:58.956Z,19.82
2017-02-28T10:37:09.327Z,19.72
2017-02-28T10:38:19.283Z,19.72
2017-02-28T10:39:30.013Z,19.82
2017-02-28T10:40:40.620Z,19.63
2017-02-28T10:41:50.173Z,19.92
2017-02-28T10:43:00.916Z,20.01
2017-02-28T10:44:11.328Z,20.2
2017-02-28T10:45:21.590Z,20.4
2017-02-28T10:46:32.689Z,20.59
2017-02-28T10:47:43.380Z,20.4
2017-02-28T10:48:53.854Z,20.4
2017-02-28T10:50:04.233Z,20.68
2017-02-28T10:51:14.931Z,20.78
2017-02-28T10:52:25.286Z,20.5
2017-02-28T10:53:36.048Z,20.78
2017-02-28T10:54:46.407Z,20.97
2017-02-28T10:55:56.814Z,21.07
2017-02-28T10:57:07.584Z,20.97
2017-02-28T10:58:17.956Z,20.59
2017-02-28T10:59:28.714Z,21.17
2017-02-28T11:00:39.117Z,20.78
2017-02-28T11:01:49.882Z,20.97
2017-02-28T11:03:00.093Z,20.78
2017-02-28T11:04:10.445Z,20.88
2017-02-28T11:05:21.184Z,21.26
2017-02-28T11:06:31.523Z,21.17
2017-02-28T11:07:42.133Z,21.07
2017-02-28T11:08:52.497Z,21.17
2017-02-28T11:10:02.893Z,21.26
2017-02-28T11:11:13.271Z,21.26
2017-02-28T11:12:23.235Z,21.36
2017-02-28T11:13:33.903Z,21.17
2017-02-28T11:14:44.288Z,21.17
2017-02-28T11:15:55.063Z,21.17
2017-02-28T11:17:05.441Z,21.36
2017-02-28T11:18:15.396Z,21.45
2017-02-28T11:19:25.617Z,21.45
2017-02-28T11:20:35.994Z,21.65
2017-02-28T11:21:46.746Z,21.45
2017-02-28T11:22:56.315Z,21.36
2017-02-28T11:24:06.305Z,21.45
2017-02-28T11:25:17.376Z,21.45
2017-02-28T11:26:27.760Z,21.75
2017-02-28T11:27:38.123Z,21.65
2017-02-28T11:28:48.058Z,21.45
2017-02-28T11:29:58.858Z,21.45
2017-02-28T11:31:09.614Z,21.45
2017-02-28T11:32:20.372Z,21.75
2017-02-28T11:33:30.768Z,21.84
2017-02-28T11:34:41.584Z,21.45
2017-02-28T11:35:52.203Z,21.75
2017-02-28T11:37:02.563Z,21.55
2017-02-28T11:38:12.913Z,21.55
2017-02-28T11:39:22.894Z,21.65
2017-02-28T11:40:32.881Z,21.55
2017-02-28T11:41:43.625Z,21.65
2017-02-28T11:42:54.390Z,21.55
2017-02-28T11:44:05.171Z,21.55
2017-02-28T11:45:15.943Z,21.75
2017-02-28T11:46:26.606Z,21.75
2017-02-28T11:47:37.396Z,21.65
2017-02-28T11:48:47.383Z,21.66
2017-02-28T11:49:57.380Z,21.55
2017-02-28T11:51:07.739Z,21.84
2017-02-28T11:52:18.368Z,21.66
2017-02-28T11:53:28.747Z,21.55
2017-02-28T11:54:39.503Z,21.65
2017-02-28T11:55:49.076Z,21.55
2017-02-28T11:56:58.742Z,21.85
2017-02-28T11:58:09.798Z,21.66
2017-02-28T11:59:19.379Z,21.66
2017-02-28T12:00:30.140Z,21.45
2017-02-28T12:01:40.944Z,21.55
2017-02-28T12:02:51.713Z,21.36
2017-02-28T12:04:01.972Z,21.45
2017-02-28T12:05:12.327Z,21.45
2017-02-28T12:06:21.915Z,21.36
2017-02-28T12:07:31.922Z,21.45
2017-02-28T12:08:42.278Z,21.45
2017-02-28T12:09:53.549Z,21.45
2017-02-28T12:11:03.904Z,21.36
2017-02-28T12:12:14.269Z,21.17
2017-02-28T12:13:24.627Z,21.17
2017-02-28T12:14:35.018Z,21.17
2017-02-28T12:15:45.642Z,20.97
2017-02-28T12:16:56.028Z,20.97
2017-02-28T12:18:06.819Z,21.07
2017-02-28T12:19:17.588Z,20.78
2017-02-28T12:20:28.362Z,21.17
2017-02-28T12:21:39.397Z,20.88
2017-02-28T12:22:49.379Z,20.97
2017-02-28T12:23:59.760Z,21.07
2017-02-28T12:25:10.555Z,21.17
2017-02-28T12:26:20.947Z,21.07
2017-02-28T12:27:31.603Z,20.97
2017-02-28T12:28:42.351Z,21.07
2017-02-28T12:29:53.075Z,20.88
2017-02-28T12:31:03.062Z,20.59
2017-02-28T12:32:13.033Z,20.88
2017-02-28T12:33:23.293Z,20.5
2017-02-28T12:34:33.287Z,20.88
2017-02-28T12:35:43.245Z,20.59
2017-02-28T12:36:53.872Z,20.78
2017-02-28T12:38:04.657Z,20.78
2017-02-28T12:39:15.673Z,20.68
2017-02-28T12:40:26.435Z,20.68
2017-02-28T12:41:36.809Z,20.11
2017-02-28T12:42:47.577Z,20.2
2017-02-28T12:43:57.558Z,20.59
2017-02-28T12:45:07.844Z,20.4
2017-02-28T12:46:18.199Z,20.4
2017-02-28T12:47:28.155Z,20.3
2017-02-28T12:48:38.137Z,20.3
2017-02-28T12:49:48.896Z,20.3
2017-02-28T12:50:59.957Z,20.68
2017-02-28T12:52:10.733Z,20.59
2017-02-28T12:53:21.098Z,20.3
2017-02-28T12:54:31.863Z,20.3
2017-02-28T12:55:42.622Z,20.4
2017-02-28T12:56:52.884Z,20.59
2017-02-28T12:58:03.003Z,20.5
2017-02-28T12:59:13.854Z,20.59
2017-02-28T13:00:24.636Z,20.5
2017-02-28T13:01:35.392Z,20.5
2017-02-28T13:02:46.023Z,20.4
2017-02-28T13:03:56.804Z,20.3
2017-02-28T13:05:07.572Z,20.4
2017-02-28T13:06:17.939Z,20.5
2017-02-28T13:07:28.282Z,20.2
2017-02-28T13:08:38.891Z,20.11
2017-02-28T13:09:48.860Z,20.01
2017-02-28T13:10:59.629Z,19.72
2017-02-28T13:12:09.649Z,19.82
2017-02-28T13:13:20.015Z,19.53
2017-02-28T13:14:31.333Z,19.72
2017-02-28T13:15:42.100Z,19.82
2017-02-28T13:16:51.670Z,19.72
2017-02-28T13:18:02.433Z,19.82
2017-02-28T13:19:12.394Z,19.92
2017-02-28T13:20:22.269Z,19.72
2017-02-28T13:21:32.641Z,19.72
2017-02-28T13:22:43.399Z,19.72
2017-02-28T13:23:53.789Z,19.82
2017-02-28T13:25:04.577Z,19.63
2017-02-28T13:26:15.255Z,19.72
2017-02-28T13:27:25.604Z,19.63
2017-02-28T13:28:35.953Z,19.72
2017-02-28T13:29:46.317Z,19.72
2017-02-28T13:30:56.667Z,19.63
2017-02-28T13:32:07.342Z,19.72
2017-02-28T13:33:17.713Z,19.43
2017-02-28T13:34:27.697Z,19.63
2017-02-28T13:35:37.260Z,19.34
2017-02-28T13:36:47.630Z,19.53
2017-02-28T13:37:58.331Z,19.53
2017-02-28T13:39:09.130Z,19.63
2017-02-28T13:40:19.899Z,19.53
2017-02-28T13:41:30.282Z,19.53
2017-02-28T13:42:41.035Z,19.63
2017-02-28T13:43:51.643Z,19.43
2017-02-28T13:45:01.999Z,19.34
2017-02-28T13:46:11.582Z,19.15
2017-02-28T13:47:22.347Z,19.53
2017-02-28T13:48:32.327Z,19.34
2017-02-28T13:49:42.991Z,19.15
2017-02-28T13:50:52.980Z,19.53
2017-02-28T13:52:03.351Z,19.34
2017-02-28T13:53:14.098Z,19.24
2017-02-28T13:54:23.662Z,19.43
2017-02-28T13:55:34.705Z,19.34
2017-02-28T13:56:45.057Z,19.43
2017-02-28T13:57:55.832Z,19.34
2017-02-28T13:59:05.810Z,19.15
2017-02-28T14:00:16.577Z,19.15
2017-02-28T14:01:27.259Z,19.05
2017-02-28T14:02:38.043Z,18.86
2017-02-28T14:03:48.813Z,18.38
2017-02-28T14:04:59.194Z,18.57
2017-02-28T14:06:09.983Z,18.57
2017-02-28T14:07:21.041Z,18.57
2017-02-28T14:08:30.610Z,18.48
2017-02-28T14:09:39.765Z,18.57
2017-02-28T14:10:50.138Z,18.66
2017-02-28T14:12:00.890Z,18.66
2017-02-28T14:13:15.810Z,18.28
2017-02-28T14:14:26.582Z,18.38
2017-02-28T14:15:36.949Z,18.28
2017-02-28T14:16:47.333Z,18.38
2017-02-28T14:17:57.950Z,18.28
2017-02-28T14:19:09.216Z,18.08
2017-02-28T14:20:19.992Z,17.9
2017-02-28T14:21:29.962Z,17.99
2017-02-28T14:22:40.328Z,17.99
2017-02-28T14:23:51.144Z,17.99
2017-02-28T14:25:02.146Z,17.7
2017-02-28T14:26:12.508Z,17.8
2017-02-28T14:27:23.271Z,17.8
2017-02-28T14:28:33.240Z,17.51
2017-02-28T14:29:43.988Z,17.7
2017-02-28T14:30:54.978Z,17.9
2017-02-28T14:32:05.359Z,17.9
2017-02-28T14:33:15.325Z,17.61
2017-02-28T14:34:25.326Z,17.51
2017-02-28T14:35:36.091Z,17.41
2017-02-28T14:36:47.160Z,17.41
2017-02-28T14:37:57.506Z,17.32
2017-02-28T14:39:07.109Z,17.51
2017-02-28T14:40:17.875Z,17.32
2017-02-28T14:41:28.219Z,17.03
2017-02-28T14:42:39.220Z,17.03
2017-02-28T14:43:49.976Z,17.22
2017-02-28T14:45:00.718Z,17.22
2017-02-28T14:46:11.076Z,16.93
2017-02-28T14:47:21.456Z,17.03
2017-02-28T14:48:32.091Z,16.93
2017-02-28T14:49:42.862Z,16.93
2017-02-28T14:50:53.621Z,16.93
2017-02-28T14:52:04.398Z,17.03
2017-02-28T14:53:14.767Z,16.74
2017-02-28T14:54:25.787Z,16.93
2017-02-28T14:55:36.531Z,16.93
2017-02-28T14:56:46.097Z,16.64
2017-02-28T14:57:56.451Z,16.55
2017-02-28T14:59:07.210Z,16.45
2017-02-28T15:00:17.890Z,16.45
2017-02-28T15:01:28.655Z,16.64
2017-02-28T15:02:39.052Z,16.55
2017-02-28T15:03:49.021Z,16.64
2017-02-28T15:04:59.399Z,16.26
2017-02-28T15:06:09.606Z,16.45
2017-02-28T15:07:19.582Z,16.45
2017-02-28T15:08:29.572Z,16.26
2017-02-28T15:09:39.949Z,16.36